Terminal Aerodrome Forecast
Issued by NWS

Home | Current Version | Previous Version | Text Only | Print | Product List | Glossary On
Versions: 1 2 3 4 5 6 7 8 9 10 11 12 13
000
FTUS44 KEWX 290539
TAFSSF
TAF
KSSF 290539Z 2906/3006 17005KT P6SM SKC
      TEMPO 2912/2915 P6SM BKN007
     FM291600 18011KT P6SM FEW030
     FM291800 18015G25KT P6SM SKC
     FM300500 16009KT P6SM OVC025=

USA.gov is the U.S. government's official web portal to all federal, state and local government web resources and services.